createdAt,value
2022-08-26T00:01:46.616Z,65.57
2022-08-26T00:04:13.772Z,67.32
2022-08-26T00:06:42.352Z,67.58
2022-08-26T00:09:12.479Z,67.71
2022-08-26T00:11:38.998Z,67.26
2022-08-26T00:14:06.372Z,67.45
2022-08-26T00:16:33.090Z,68.34
2022-08-26T00:19:00.165Z,67.78
2022-08-26T00:21:26.737Z,69.52
2022-08-26T00:23:55.956Z,69.04
2022-08-26T00:26:22.814Z,68.88
2022-08-26T00:28:55.138Z,69.40
2022-08-26T00:31:21.741Z,68.74
2022-08-26T00:33:48.473Z,69.34
2022-08-26T00:36:20.228Z,69.03
2022-08-26T00:38:47.947Z,69.64
2022-08-26T00:41:14.994Z,69.87
2022-08-26T00:43:47.753Z,69.25
2022-08-26T00:46:19.329Z,69.27
2022-08-26T00:48:49.259Z,68.89
2022-08-26T00:51:18.299Z,68.78
2022-08-26T00:53:50.438Z,68.98
2022-08-26T00:56:33.624Z,69.28
2022-08-26T00:59:06.957Z,71.11
2022-08-26T01:01:33.970Z,69.87
2022-08-26T01:04:01.123Z,70.11
2022-08-26T01:06:28.495Z,70.59
2022-08-26T01:08:56.114Z,69.67
2022-08-26T01:11:24.044Z,69.93
2022-08-26T01:13:58.667Z,70.92
2022-08-26T01:16:25.593Z,71.18
2022-08-26T01:18:58.515Z,70.96
2022-08-26T01:21:29.425Z,71.11
2022-08-26T01:23:59.392Z,70.26
2022-08-26T01:26:32.926Z,71.26
2022-08-26T01:29:02.857Z,70.85
2022-08-26T01:31:35.387Z,71.02
2022-08-26T01:34:20.156Z,70.54
2022-08-26T01:36:51.421Z,71.54
2022-08-26T01:39:19.183Z,70.89
2022-08-26T01:41:47.220Z,70.77
2022-08-26T01:44:23.966Z,70.76
2022-08-26T01:46:52.227Z,71.30
2022-08-26T01:49:20.987Z,70.86
2022-08-26T01:51:51.260Z,70.91
2022-08-26T01:54:20.458Z,71.78
2022-08-26T01:56:47.973Z,72.31
2022-08-26T01:59:18.309Z,71.79
2022-08-26T02:01:48.098Z,71.30
2022-08-26T02:04:22.351Z,71.32
2022-08-26T02:06:49.483Z,72.35
2022-08-26T02:09:18.040Z,71.86
2022-08-26T02:11:47.108Z,72.63
2022-08-26T02:14:19.896Z,72.52
2022-08-26T02:16:50.256Z,72.86
2022-08-26T02:19:21.263Z,72.36
2022-08-26T02:21:52.080Z,72.79
2022-08-26T02:24:23.506Z,73.12
2022-08-26T02:26:50.845Z,74.26
2022-08-26T02:29:42.026Z,73.28
2022-08-26T02:32:09.106Z,73.38
2022-08-26T02:34:35.740Z,73.64
2022-08-26T02:37:07.657Z,73.77
2022-08-26T02:39:36.908Z,73.69
2022-08-26T02:42:05.245Z,73.64
2022-08-26T02:44:32.404Z,74.83
2022-08-26T02:47:00.499Z,74.21
2022-08-26T02:49:27.656Z,74.19
2022-08-26T02:51:54.218Z,73.82
2022-08-26T02:54:23.811Z,74.32
2022-08-26T02:56:51.436Z,74.34
2022-08-26T02:59:18.334Z,74.99
2022-08-26T03:01:49.290Z,75.33
2022-08-26T03:04:16.558Z,76.30
2022-08-26T03:06:43.109Z,76.31
2022-08-26T03:09:18.515Z,76.53
2022-08-26T03:11:47.131Z,76.61
2022-08-26T03:14:13.688Z,76.80
2022-08-26T03:16:40.580Z,77.30
2022-08-26T03:19:09.103Z,77.23
2022-08-26T03:21:37.624Z,76.78
2022-08-26T03:24:05.056Z,77.33
2022-08-26T03:26:32.173Z,76.58
2022-08-26T03:29:17.451Z,76.70
2022-08-26T03:31:44.139Z,76.24
2022-08-26T03:34:13.871Z,76.79
2022-08-26T03:36:41.684Z,77.01
2022-08-26T03:39:08.517Z,77.15
2022-08-26T03:41:36.897Z,76.83
2022-08-26T03:44:05.716Z,76.60
2022-08-26T03:46:33.885Z,76.57
2022-08-26T03:49:02.360Z,76.78
2022-08-26T03:51:29.327Z,76.70
2022-08-26T03:53:57.653Z,76.44
2022-08-26T03:56:24.704Z,76.84
2022-08-26T03:58:52.820Z,76.61
2022-08-26T04:01:19.654Z,77.20
2022-08-26T04:04:00.530Z,77.33
2022-08-26T04:06:33.192Z,76.30
2022-08-26T04:09:04.298Z,76.44
2022-08-26T04:11:34.141Z,76.96
2022-08-26T04:14:07.259Z,76.77
2022-08-26T04:16:34.917Z,77.04
2022-08-26T04:19:02.489Z,77.82
2022-08-26T04:21:29.316Z,76.56
2022-08-26T04:23:56.292Z,76.80
2022-08-26T04:26:25.496Z,77.23
2022-08-26T04:28:55.055Z,76.79
2022-08-26T04:31:22.407Z,76.63
2022-08-26T04:33:50.002Z,77.82
2022-08-26T04:36:17.754Z,77.08
2022-08-26T04:38:47.589Z,77.02
2022-08-26T04:41:15.372Z,76.64
2022-08-26T04:43:44.244Z,76.70
2022-08-26T04:46:12.930Z,76.66
2022-08-26T04:48:41.153Z,76.91
2022-08-26T04:51:09.108Z,78.49
2022-08-26T04:53:36.455Z,77.58
2022-08-26T04:56:04.491Z,77.10
2022-08-26T04:58:31.557Z,77.10
2022-08-26T05:01:10.771Z,77.09
2022-08-26T05:03:37.656Z,77.01
2022-08-26T05:06:07.385Z,77.97
2022-08-26T05:08:40.978Z,77.51
2022-08-26T05:11:14.382Z,77.70
2022-08-26T05:13:43.794Z,77.23
2022-08-26T05:16:15.842Z,78.58
2022-08-26T05:18:44.623Z,77.63
2022-08-26T05:21:35.587Z,77.50
2022-08-26T05:24:12.421Z,77.63
2022-08-26T05:26:50.965Z,78.51
2022-08-26T05:29:18.728Z,77.82
2022-08-26T05:32:03.898Z,77.72
2022-08-26T05:34:51.427Z,78.05
2022-08-26T05:37:33.423Z,77.18
2022-08-26T05:40:12.433Z,77.45
2022-08-26T05:42:48.709Z,77.28
2022-08-26T05:45:18.774Z,78.03
2022-08-26T05:47:49.052Z,77.31
2022-08-26T05:50:23.137Z,77.19
2022-08-26T05:52:50.871Z,76.64
2022-08-26T05:55:23.821Z,76.53
2022-08-26T05:57:51.317Z,76.55
2022-08-26T06:00:24.777Z,76.23
2022-08-26T06:02:58.504Z,76.25
2022-08-26T06:05:31.249Z,76.06
2022-08-26T06:08:14.495Z,75.89
2022-08-26T06:11:01.128Z,75.14
2022-08-26T06:13:35.299Z,74.92
2022-08-26T06:16:10.400Z,74.69
2022-08-26T06:19:11.148Z,74.34
2022-08-26T06:21:39.329Z,73.91
2022-08-26T06:24:27.853Z,72.89
2022-08-26T06:27:01.794Z,72.71
2022-08-26T06:29:33.818Z,72.87
2022-08-26T06:32:15.811Z,72.56
2022-08-26T06:35:12.210Z,73.03
2022-08-26T06:37:40.323Z,72.91
2022-08-26T06:40:09.017Z,72.97
2022-08-26T06:42:48.276Z,73.59
2022-08-26T06:45:17.532Z,72.10
2022-08-26T06:47:47.289Z,71.56
2022-08-26T06:50:17.508Z,71.08
2022-08-26T06:52:49.390Z,70.46
2022-08-26T06:55:19.105Z,70.39
2022-08-26T06:57:59.783Z,70.48
2022-08-26T07:00:30.857Z,70.88
2022-08-26T07:03:06.425Z,70.75
2022-08-26T07:05:42.292Z,70.61
2022-08-26T07:08:11.013Z,70.58
2022-08-26T07:10:48.803Z,70.09
2022-08-26T07:13:15.937Z,69.60
2022-08-26T07:16:05.476Z,69.60
2022-08-26T07:18:53.574Z,68.63
2022-08-26T07:21:34.809Z,67.97
2022-08-26T07:24:01.796Z,69.36
2022-08-26T07:26:32.628Z,68.25
2022-08-26T07:29:03.179Z,68.04
2022-08-26T07:31:39.495Z,68.17
2022-08-26T07:34:17.418Z,68.09
2022-08-26T07:36:48.405Z,67.38
2022-08-26T07:39:26.514Z,66.98
2022-08-26T07:41:55.767Z,65.05
2022-08-26T07:44:31.304Z,63.70
2022-08-26T07:47:24.036Z,62.85
2022-08-26T07:49:58.816Z,62.14
2022-08-26T07:52:28.437Z,61.15
2022-08-26T07:55:12.443Z,61.07
2022-08-26T07:57:47.886Z,60.66
2022-08-26T08:00:23.984Z,60.18
2022-08-26T08:03:06.642Z,59.35
2022-08-26T08:05:46.576Z,57.82
2022-08-26T08:08:27.579Z,57.77
2022-08-26T08:11:09.919Z,57.09
2022-08-26T08:13:48.334Z,56.23
2022-08-26T08:16:21.681Z,56.12
2022-08-26T08:18:53.245Z,54.91
2022-08-26T08:21:25.432Z,56.03
2022-08-26T08:24:01.122Z,56.45
2022-08-26T08:26:28.340Z,57.06
2022-08-26T08:28:59.699Z,57.98
2022-08-26T08:34:23.158Z,56.95
2022-08-26T08:39:40.071Z,55.54
2022-08-26T08:42:36.690Z,54.34
2022-08-26T08:45:47.069Z,53.90
2022-08-26T08:48:28.466Z,53.83
2022-08-26T08:51:21.070Z,53.06
2022-08-26T08:53:54.762Z,54.62
2022-08-26T08:56:39.962Z,54.89
2022-08-26T08:59:20.404Z,54.05
2022-08-26T09:01:59.321Z,52.85
2022-08-26T09:05:05.328Z,51.78
2022-08-26T09:07:47.107Z,51.61
2022-08-26T09:10:35.127Z,50.71
2022-08-26T09:13:17.036Z,49.12
2022-08-26T09:16:20.523Z,49.93
2022-08-26T09:18:59.393Z,49.94
2022-08-26T09:21:34.012Z,49.42
2022-08-26T09:24:03.316Z,50.68
2022-08-26T09:26:57.812Z,51.07
2022-08-26T09:29:41.130Z,50.60
2022-08-26T09:32:31.370Z,49.53
2022-08-26T09:35:10.949Z,49.33
2022-08-26T09:37:54.560Z,49.69
2022-08-26T09:40:24.143Z,50.09
2022-08-26T09:43:24.943Z,48.14
2022-08-26T09:46:17.907Z,47.83
2022-08-26T09:48:53.043Z,46.50
2022-08-26T09:51:38.157Z,44.80
2022-08-26T09:54:08.219Z,43.98
2022-08-26T09:56:46.617Z,43.21
2022-08-26T10:00:05.989Z,43.54
2022-08-26T10:02:47.946Z,43.47
2022-08-26T10:05:30.626Z,42.59
2022-08-26T10:08:03.245Z,41.88
2022-08-26T10:10:40.531Z,41.76
2022-08-26T10:13:49.623Z,42.53
2022-08-26T10:16:29.664Z,41.69
2022-08-26T10:19:29.290Z,41.31
2022-08-26T10:22:25.406Z,41.92
2022-08-26T10:25:05.746Z,40.54
2022-08-26T10:27:51.070Z,40.52
2022-08-26T10:30:24.461Z,39.95
2022-08-26T10:33:07.988Z,38.32
2022-08-26T10:35:42.798Z,38.16
2022-08-26T10:38:29.275Z,36.38
2022-08-26T10:41:16.986Z,36.50
2022-08-26T10:45:07.569Z,36.90
2022-08-26T10:51:19.625Z,36.33
2022-08-26T10:54:11.901Z,35.45
2022-08-26T11:04:22.407Z,34.69
2022-08-26T11:07:38.039Z,34.89
2022-08-26T11:10:13.289Z,33.77
2022-08-26T11:12:40.171Z,33.89
2022-08-26T11:15:13.290Z,33.93
2022-08-26T11:17:56.655Z,32.26
2022-08-26T11:20:44.116Z,33.01
2022-08-26T11:23:32.425Z,34.18
2022-08-26T11:26:35.626Z,33.59
2022-08-26T11:29:31.672Z,34.17
2022-08-26T11:32:30.261Z,33.88
2022-08-26T11:35:02.893Z,33.24
2022-08-26T11:37:50.330Z,32.71
2022-08-26T11:40:28.184Z,32.89
2022-08-26T11:43:21.091Z,31.09
2022-08-26T11:46:10.801Z,31.65
2022-08-26T11:48:43.642Z,31.98
2022-08-26T11:54:31.871Z,30.60
2022-08-26T11:57:09.307Z,31.13
2022-08-26T11:59:40.953Z,31.12
2022-08-26T12:02:20.611Z,31.24
2022-08-26T12:05:00.616Z,31.12
2022-08-26T12:07:33.109Z,29.96
2022-08-26T12:10:04.959Z,29.80
2022-08-26T12:12:45.441Z,29.77
2022-08-26T12:15:16.897Z,28.29
2022-08-26T12:17:45.555Z,28.72
2022-08-26T12:20:46.370Z,28.81
2022-08-26T12:23:43.264Z,28.90
2022-08-26T12:26:22.535Z,30.09
2022-08-26T12:29:00.082Z,31.20
2022-08-26T12:31:40.554Z,30.96
2022-08-26T12:34:17.997Z,29.10
2022-08-26T12:36:50.439Z,27.78
2022-08-26T12:39:26.657Z,27.61
2022-08-26T12:41:56.360Z,28.42
2022-08-26T12:44:53.965Z,30.10
2022-08-26T12:47:45.028Z,30.83
2022-08-26T12:50:25.188Z,30.70
2022-08-26T12:53:16.604Z,31.04
2022-08-26T12:55:54.135Z,30.49
2022-08-26T12:58:32.859Z,31.37
2022-08-26T13:01:22.495Z,31.91
2022-08-26T13:03:52.557Z,33.23
2022-08-26T13:06:26.297Z,33.55
2022-08-26T13:09:03.669Z,33.88
2022-08-26T13:11:53.604Z,33.07
2022-08-26T13:14:25.563Z,32.27
2022-08-26T13:16:56.330Z,32.34
2022-08-26T13:19:26.961Z,32.05
2022-08-26T13:22:00.069Z,31.86
2022-08-26T13:24:36.390Z,31.21
2022-08-26T13:27:05.381Z,31.47
2022-08-26T13:29:37.695Z,31.09
2022-08-26T13:32:12.275Z,31.29
2022-08-26T13:34:51.249Z,30.47
2022-08-26T13:37:35.469Z,31.24
2022-08-26T13:40:13.200Z,31.30
2022-08-26T13:42:54.163Z,31.60
2022-08-26T13:45:25.483Z,31.62
2022-08-26T13:47:52.214Z,32.51
2022-08-26T13:50:19.219Z,32.67
2022-08-26T13:52:46.389Z,33.18
2022-08-26T13:55:13.064Z,33.47
2022-08-26T13:57:39.711Z,34.20
2022-08-26T14:00:07.507Z,34.44
2022-08-26T14:02:40.412Z,34.56
2022-08-26T14:05:07.705Z,35.16
2022-08-26T14:07:34.538Z,35.49
2022-08-26T14:10:01.688Z,37.51
2022-08-26T14:12:31.107Z,38.91
2022-08-26T14:15:00.405Z,41.65
2022-08-26T14:17:26.924Z,42.22
2022-08-26T14:19:57.452Z,43.74
2022-08-26T14:22:26.767Z,44.89
2022-08-26T14:24:55.110Z,45.81
2022-08-26T14:27:25.621Z,46.09
2022-08-26T14:29:52.549Z,46.25
2022-08-26T14:32:27.565Z,46.32
2022-08-26T14:34:55.237Z,47.57
2022-08-26T14:37:25.113Z,49.61
2022-08-26T14:39:51.976Z,52.83
2022-08-26T14:42:34.517Z,53.97
2022-08-26T14:45:25.491Z,53.99
2022-08-26T14:50:54.046Z,54.09
2022-08-26T14:53:45.418Z,55.63
2022-08-26T15:02:13.816Z,56.50
2022-08-26T15:04:50.601Z,58.66
2022-08-26T15:07:35.801Z,58.01
2022-08-26T15:10:03.946Z,59.92
2022-08-26T15:12:41.429Z,61.37
2022-08-26T15:15:13.364Z,61.36
2022-08-26T15:17:43.302Z,62.33
2022-08-26T15:20:22.961Z,61.60
2022-08-26T15:22:52.270Z,62.62
2022-08-26T15:25:23.477Z,62.28
2022-08-26T15:28:02.193Z,64.76
2022-08-26T15:33:32.123Z,66.89
2022-08-26T15:36:17.717Z,70.77
2022-08-26T15:39:12.501Z,67.66
2022-08-26T15:41:40.054Z,67.70
2022-08-26T15:44:12.270Z,71.18
2022-08-26T15:46:42.183Z,71.46
2022-08-26T15:49:17.491Z,71.70
2022-08-26T15:51:49.580Z,71.16
2022-08-26T15:54:23.690Z,71.87
2022-08-26T15:57:19.725Z,71.21
2022-08-26T16:00:14.544Z,70.47
2022-08-26T16:02:59.654Z,72.25
2022-08-26T16:05:26.764Z,74.07
2022-08-26T16:07:56.145Z,74.05
2022-08-26T16:10:22.990Z,73.52
2022-08-26T16:12:49.755Z,75.56
2022-08-26T16:15:16.974Z,74.66
2022-08-26T16:17:46.959Z,74.85
2022-08-26T16:20:15.361Z,75.59
2022-08-26T16:23:36.996Z,74.56
2022-08-26T16:26:15.828Z,76.53
2022-08-26T16:29:00.586Z,78.28
2022-08-26T16:31:30.665Z,77.58
2022-08-26T16:34:02.852Z,77.51
2022-08-26T16:36:33.881Z,78.56
2022-08-26T16:39:01.281Z,79.17
2022-08-26T16:41:33.205Z,82.81
2022-08-26T16:44:20.139Z,82.00
2022-08-26T16:49:44.666Z,84.58
2022-08-26T16:52:28.302Z,84.45
2022-08-26T16:55:18.004Z,84.10
2022-08-26T16:57:59.923Z,85.03
2022-08-26T17:01:05.537Z,86.46
2022-08-26T17:03:44.264Z,86.45
2022-08-26T17:06:38.769Z,86.90
2022-08-26T17:09:30.451Z,85.75
2022-08-26T17:12:30.366Z,85.86
2022-08-26T17:18:52.577Z,90.30
2022-08-26T17:21:30.947Z,91.56
2022-08-26T17:24:06.718Z,90.11
2022-08-26T17:26:50.052Z,92.33
2022-08-26T17:29:24.613Z,91.95
2022-08-26T17:32:11.203Z,90.00
2022-08-26T17:34:50.896Z,88.98
2022-08-26T17:38:25.590Z,89.67
2022-08-26T17:41:06.327Z,88.72
2022-08-26T17:43:53.183Z,88.73
2022-08-26T17:46:41.262Z,88.65
2022-08-26T17:52:23.577Z,88.09
2022-08-26T17:54:57.685Z,88.01
2022-08-26T17:57:55.674Z,88.10
2022-08-26T18:00:29.881Z,86.82
2022-08-26T18:02:56.781Z,86.07
2022-08-26T18:05:26.739Z,86.34
2022-08-26T18:08:18.172Z,86.12
2022-08-26T18:10:54.936Z,86.11
2022-08-26T18:13:32.600Z,85.60
2022-08-26T18:19:49.414Z,87.63
2022-08-26T18:22:24.094Z,86.77
2022-08-26T18:25:05.329Z,86.94
2022-08-26T18:27:40.502Z,86.61
2022-08-26T18:33:23.286Z,86.28
2022-08-26T18:35:54.487Z,85.99
2022-08-26T18:38:28.388Z,86.30
2022-08-26T18:41:10.240Z,87.29
2022-08-26T18:43:49.573Z,88.20
2022-08-26T18:46:26.420Z,87.59
2022-08-26T18:49:12.739Z,87.68
2022-08-26T18:51:46.470Z,87.85
2022-08-26T18:54:23.407Z,88.83
2022-08-26T18:56:53.847Z,87.83
2022-08-26T18:59:31.031Z,87.19
2022-08-26T19:02:08.499Z,87.75
2022-08-26T19:04:37.415Z,87.25
2022-08-26T19:07:08.474Z,86.98
2022-08-26T19:09:54.083Z,86.75
2022-08-26T19:12:30.123Z,88.02
2022-08-26T19:15:01.702Z,87.73
2022-08-26T19:17:30.367Z,87.58
2022-08-26T19:19:59.647Z,88.02
2022-08-26T19:22:35.052Z,88.78
2022-08-26T19:25:07.475Z,88.67
2022-08-26T19:27:54.876Z,88.72
2022-08-26T19:30:31.040Z,87.94
2022-08-26T19:33:07.629Z,88.24
2022-08-26T19:35:52.086Z,89.02
2022-08-26T19:38:36.847Z,88.58
2022-08-26T19:41:37.297Z,88.56
2022-08-26T19:44:40.474Z,88.24
2022-08-26T19:47:25.540Z,87.78
2022-08-26T19:50:04.148Z,89.19
2022-08-26T19:52:34.592Z,91.36
2022-08-26T19:55:03.246Z,92.09
2022-08-26T19:57:58.973Z,89.62
2022-08-26T20:00:42.604Z,91.21
2022-08-26T20:03:15.947Z,93.21
2022-08-26T20:05:52.608Z,92.64
2022-08-26T20:09:01.104Z,90.90
2022-08-26T20:11:36.879Z,90.35
2022-08-26T20:14:23.883Z,90.38
2022-08-26T20:17:00.090Z,91.81
2022-08-26T20:19:49.490Z,91.97
2022-08-26T20:22:43.937Z,93.28
2022-08-26T20:25:32.650Z,95.22
2022-08-26T20:28:03.165Z,96.66
2022-08-26T20:30:37.495Z,95.71
2022-08-26T20:33:10.278Z,95.54
2022-08-26T20:35:42.312Z,95.04
2022-08-26T20:38:21.610Z,95.42
2022-08-26T20:41:02.079Z,95.31
2022-08-26T20:43:38.687Z,96.55
2022-08-26T20:46:25.092Z,94.66
2022-08-26T20:48:59.107Z,94.93
2022-08-26T20:51:30.462Z,95.41
2022-08-26T20:54:22.177Z,94.40
2022-08-26T20:56:59.759Z,93.75
2022-08-26T20:59:38.809Z,94.23
2022-08-26T21:02:05.661Z,93.73
2022-08-26T21:04:35.831Z,92.74
2022-08-26T21:07:30.403Z,92.21
2022-08-26T21:10:05.149Z,92.98
2022-08-26T21:12:43.857Z,92.94
2022-08-26T21:15:18.860Z,92.13
2022-08-26T21:17:58.529Z,91.90
2022-08-26T21:20:25.397Z,91.01
2022-08-26T21:23:30.989Z,90.02
2022-08-26T21:26:18.107Z,89.74
2022-08-26T21:28:56.754Z,89.40
2022-08-26T21:31:47.279Z,89.08
2022-08-26T21:40:10.578Z,88.73
2022-08-26T21:52:49.871Z,87.14
2022-08-26T22:06:43.340Z,88.09
2022-08-26T22:09:13.907Z,87.89
2022-08-26T22:11:41.144Z,88.37
2022-08-26T22:14:09.867Z,88.32
2022-08-26T22:16:41.064Z,88.03
2022-08-26T22:19:25.241Z,87.69
2022-08-26T22:21:53.812Z,87.28
2022-08-26T22:24:22.922Z,87.31
2022-08-26T22:26:58.773Z,87.91
2022-08-26T22:29:28.882Z,87.89
2022-08-26T22:32:13.199Z,88.33
2022-08-26T22:34:54.038Z,88.05
2022-08-26T22:37:20.853Z,87.77
2022-08-26T22:39:53.065Z,87.94
2022-08-26T22:42:19.866Z,87.97
2022-08-26T22:44:48.336Z,87.28
2022-08-26T22:47:24.307Z,87.07
2022-08-26T22:49:54.109Z,87.46
2022-08-26T22:52:22.097Z,86.93
2022-08-26T22:55:02.821Z,86.86
2022-08-26T22:57:39.138Z,86.94
2022-08-26T23:00:11.199Z,87.17
2022-08-26T23:02:56.340Z,87.33
2022-08-26T23:05:25.555Z,87.68
2022-08-26T23:07:52.514Z,87.70
2022-08-26T23:10:22.688Z,87.30
2022-08-26T23:12:49.379Z,86.95
2022-08-26T23:15:19.163Z,87.07
2022-08-26T23:18:01.880Z,86.39
2022-08-26T23:20:33.641Z,86.56
2022-08-26T23:23:01.502Z,85.94
2022-08-26T23:25:32.438Z,86.18
2022-08-26T23:28:03.648Z,86.58
2022-08-26T23:30:34.184Z,86.91
2022-08-26T23:33:01.125Z,87.21
2022-08-26T23:35:31.342Z,86.81
2022-08-26T23:37:59.043Z,88.17
2022-08-26T23:40:30.113Z,87.63
2022-08-26T23:43:01.319Z,87.80
2022-08-26T23:45:28.417Z,87.83
2022-08-26T23:47:55.455Z,87.85
2022-08-26T23:50:50.303Z,88.02
2022-08-26T23:53:25.231Z,87.89
2022-08-26T23:55:56.965Z,88.16
2022-08-26T23:58:30.219Z,88.75
